Airfield :
LOGIN :

Register | Disclaimer

   EN    FR    IT 

 










Legend :    VFR   Marginal VFR   IFR   Intensive IFR   Very Intensive IFR
Visi :
Ceiling :
>= 8 km
>= 3000ft
5 to 8 km
1000 to 3000 ft
1500m to 5 km
500 to 1000 ft
800 to 1500m
200 to 500 ft
< 800m
< 200 ft
Symbols :   Thunderstorms  Fog  Heavy snow  Heavy precipitations  Wind > 20 kt
SIGMETs :     Misc.  Thunderstorms  Icing  Turbulence  Mountain Waves  Volcanic Ashes







- Airport Elevation : 194 ft


EBCV - Chièvres

CURRENT METAR :
  • 221855Z AUTO 34010KT 9999 NCD 15/04 Q1029 BLU

EXPIRED METARs :
  • 221825Z AUTO 35011KT 9999 NCD 15/04 Q1029 BLU
  • 221755Z AUTO 33012KT 9999 NCD 16/04 Q1029 BLU
  • 221725Z AUTO 34011KT 9999 NCD 17/04 Q1029 BLU
  • 221655Z AUTO 34012KT 9999 NCD 17/03 Q1029 BLU
  • 221625Z AUTO 35015KT 9999 NCD 17/04 Q1029 BLU
  • 221555Z AUTO 35013KT 9999 NCD 17/03 Q1029 BLU

TAF TAF EBCV
Valid from the 22 at 19:00 until the 23 at 07:00 UTC


221541Z 2219/2307 34004KT 9999 NSW SCT030
PROB40
TEMPO 2300/2306 VRB03KT 7000 BY EBWM
No reported NOTAMs for that airfield.



MET'MAP, your aeronautical weather chart ! - Copyright ORBIFLY December 2007 - Disclaimer

ORBIFLY MET'MAP TEAM :

Programming & Development : Alexandra Zaïnal
Concept & Development : Baudouin d'Aumeries
Co-Development & Prog : Marc-Olivier Méhu
Technical & hardware support : Manuel Goepfert

Contact : metmap@orbifly.com




SOURCES & CREDITS :

   NOAA